sensor_id;sensor_type;location;lat;lon;timestamp;P1;durP1;ratioP1;P2;durP2;ratioP2
30127;SDS011;16942;53.196;6.592;2022-09-17T00:01:05;13.40;;;2.30;;
30127;SDS011;16942;53.196;6.592;2022-09-17T00:03:32;16.00;;;2.27;;
30127;SDS011;16942;53.196;6.592;2022-09-17T00:06:05;16.80;;;2.30;;
30127;SDS011;16942;53.196;6.592;2022-09-17T00:08:32;19.53;;;2.90;;
30127;SDS011;16942;53.196;6.592;2022-09-17T00:11:04;19.43;;;2.23;;
30127;SDS011;16942;53.196;6.592;2022-09-17T00:13:30;14.43;;;2.67;;
30127;SDS011;16942;53.196;6.592;2022-09-17T00:15:56;13.10;;;1.97;;
30127;SDS011;16942;53.196;6.592;2022-09-17T00:18:22;15.37;;;2.47;;
30127;SDS011;16942;53.196;6.592;2022-09-17T00:20:48;12.50;;;2.17;;
30127;SDS011;16942;53.196;6.592;2022-09-17T00:23:14;7.10;;;1.93;;
30127;SDS011;16942;53.196;6.592;2022-09-17T00:25:41;15.17;;;1.73;;
30127;SDS011;16942;53.196;6.592;2022-09-17T00:28:08;9.00;;;1.20;;
30127;SDS011;16942;53.196;6.592;2022-09-17T00:30:34;9.23;;;1.03;;
30127;SDS011;16942;53.196;6.592;2022-09-17T00:33:00;6.60;;;1.20;;
30127;SDS011;16942;53.196;6.592;2022-09-17T00:35:26;8.13;;;1.40;;
30127;SDS011;16942;53.196;6.592;2022-09-17T00:37:53;10.57;;;1.17;;
30127;SDS011;16942;53.196;6.592;2022-09-17T00:40:19;5.37;;;1.50;;
30127;SDS011;16942;53.196;6.592;2022-09-17T00:42:45;8.57;;;1.80;;
30127;SDS011;16942;53.196;6.592;2022-09-17T00:45:12;12.50;;;2.10;;
30127;SDS011;16942;53.196;6.592;2022-09-17T00:47:40;17.00;;;2.00;;
30127;SDS011;16942;53.196;6.592;2022-09-17T00:50:09;13.50;;;2.30;;
30127;SDS011;16942;53.196;6.592;2022-09-17T00:52:58;23.10;;;2.17;;
30127;SDS011;16942;53.196;6.592;2022-09-17T00:55:25;13.23;;;2.13;;
30127;SDS011;16942;53.196;6.592;2022-09-17T00:57:53;10.57;;;2.57;;
30127;SDS011;16942;53.196;6.592;2022-09-17T01:00:22;12.43;;;2.10;;
30127;SDS011;16942;53.196;6.592;2022-09-17T01:02:48;15.23;;;2.03;;
30127;SDS011;16942;53.196;6.592;2022-09-17T01:05:14;8.70;;;2.03;;
30127;SDS011;16942;53.196;6.592;2022-09-17T01:10:19;12.90;;;1.70;;
30127;SDS011;16942;53.196;6.592;2022-09-17T01:15:35;12.20;;;2.40;;
30127;SDS011;16942;53.196;6.592;2022-09-17T01:23:31;20.00;;;2.40;;
30127;SDS011;16942;53.196;6.592;2022-09-17T01:28:43;12.83;;;2.03;;
30127;SDS011;16942;53.196;6.592;2022-09-17T01:31:16;12.13;;;2.00;;
30127;SDS011;16942;53.196;6.592;2022-09-17T01:36:21;18.77;;;2.70;;
30127;SDS011;16942;53.196;6.592;2022-09-17T01:41:43;12.87;;;2.43;;
30127;SDS011;16942;53.196;6.592;2022-09-17T01:44:25;14.43;;;2.47;;
30127;SDS011;16942;53.196;6.592;2022-09-17T01:46:57;15.47;;;2.67;;
30127;SDS011;16942;53.196;6.592;2022-09-17T01:49:28;20.33;;;2.70;;
30127;SDS011;16942;53.196;6.592;2022-09-17T01:51:55;17.47;;;2.00;;
30127;SDS011;16942;53.196;6.592;2022-09-17T01:54:33;13.50;;;2.37;;
30127;SDS011;16942;53.196;6.592;2022-09-17T01:57:04;17.40;;;2.70;;
30127;SDS011;16942;53.196;6.592;2022-09-17T01:59:34;17.27;;;2.13;;
30127;SDS011;16942;53.196;6.592;2022-09-17T02:02:07;17.73;;;2.37;;
30127;SDS011;16942;53.196;6.592;2022-09-17T02:04:37;21.57;;;2.60;;
30127;SDS011;16942;53.196;6.592;2022-09-17T02:07:07;15.93;;;2.57;;
30127;SDS011;16942;53.196;6.592;2022-09-17T02:09:37;13.97;;;2.20;;
30127;SDS011;16942;53.196;6.592;2022-09-17T02:12:06;19.67;;;2.23;;
30127;SDS011;16942;53.196;6.592;2022-09-17T02:14:35;11.00;;;2.07;;
30127;SDS011;16942;53.196;6.592;2022-09-17T02:17:04;19.73;;;2.20;;
30127;SDS011;16942;53.196;6.592;2022-09-17T02:19:33;19.07;;;3.00;;
30127;SDS011;16942;53.196;6.592;2022-09-17T02:22:20;12.20;;;1.80;;
30127;SDS011;16942;53.196;6.592;2022-09-17T02:29:43;14.80;;;2.07;;
30127;SDS011;16942;53.196;6.592;2022-09-17T02:32:10;19.07;;;2.13;;
30127;SDS011;16942;53.196;6.592;2022-09-17T02:34:36;7.73;;;1.33;;
30127;SDS011;16942;53.196;6.592;2022-09-17T02:37:02;15.60;;;2.73;;
30127;SDS011;16942;53.196;6.592;2022-09-17T02:39:28;11.97;;;2.00;;
30127;SDS011;16942;53.196;6.592;2022-09-17T02:42:06;9.47;;;1.70;;
30127;SDS011;16942;53.196;6.592;2022-09-17T02:55:29;20.10;;;2.43;;
30127;SDS011;16942;53.196;6.592;2022-09-17T02:57:59;16.27;;;2.90;;
30127;SDS011;16942;53.196;6.592;2022-09-17T03:00:28;15.67;;;2.10;;
30127;SDS011;16942;53.196;6.592;2022-09-17T03:02:56;18.70;;;2.03;;
30127;SDS011;16942;53.196;6.592;2022-09-17T03:05:24;19.20;;;2.33;;
30127;SDS011;16942;53.196;6.592;2022-09-17T03:07:53;14.43;;;1.93;;
30127;SDS011;16942;53.196;6.592;2022-09-17T03:10:20;10.60;;;2.13;;
30127;SDS011;16942;53.196;6.592;2022-09-17T03:12:46;15.13;;;1.60;;
30127;SDS011;16942;53.196;6.592;2022-09-17T03:15:12;13.67;;;1.80;;
30127;SDS011;16942;53.196;6.592;2022-09-17T03:17:38;13.00;;;1.70;;
30127;SDS011;16942;53.196;6.592;2022-09-17T03:20:04;11.60;;;2.40;;
30127;SDS011;16942;53.196;6.592;2022-09-17T03:22:30;11.20;;;1.97;;
30127;SDS011;16942;53.196;6.592;2022-09-17T03:24:56;8.73;;;2.17;;
30127;SDS011;16942;53.196;6.592;2022-09-17T03:27:22;8.77;;;1.63;;
30127;SDS011;16942;53.196;6.592;2022-09-17T03:29:48;9.70;;;1.63;;
30127;SDS011;16942;53.196;6.592;2022-09-17T03:32:14;16.73;;;2.27;;
30127;SDS011;16942;53.196;6.592;2022-09-17T03:34:41;13.53;;;1.90;;
30127;SDS011;16942;53.196;6.592;2022-09-17T03:37:07;13.77;;;2.30;;
30127;SDS011;16942;53.196;6.592;2022-09-17T03:39:33;17.53;;;1.67;;
30127;SDS011;16942;53.196;6.592;2022-09-17T03:41:59;13.57;;;1.70;;
30127;SDS011;16942;53.196;6.592;2022-09-17T03:44:25;20.27;;;2.20;;
30127;SDS011;16942;53.196;6.592;2022-09-17T03:46:51;11.83;;;1.83;;
30127;SDS011;16942;53.196;6.592;2022-09-17T03:49:17;11.47;;;1.50;;
30127;SDS011;16942;53.196;6.592;2022-09-17T03:51:43;14.97;;;1.90;;
30127;SDS011;16942;53.196;6.592;2022-09-17T03:54:09;14.40;;;2.27;;
30127;SDS011;16942;53.196;6.592;2022-09-17T03:56:35;12.10;;;1.73;;
30127;SDS011;16942;53.196;6.592;2022-09-17T03:59:01;12.67;;;1.57;;
30127;SDS011;16942;53.196;6.592;2022-09-17T04:01:28;11.27;;;2.23;;
30127;SDS011;16942;53.196;6.592;2022-09-17T04:03:54;10.20;;;1.63;;
30127;SDS011;16942;53.196;6.592;2022-09-17T04:06:20;14.53;;;1.57;;
30127;SDS011;16942;53.196;6.592;2022-09-17T04:08:46;13.00;;;1.83;;
30127;SDS011;16942;53.196;6.592;2022-09-17T04:11:12;10.00;;;2.03;;
30127;SDS011;16942;53.196;6.592;2022-09-17T04:13:38;7.87;;;1.93;;
30127;SDS011;16942;53.196;6.592;2022-09-17T04:16:04;6.43;;;1.20;;
30127;SDS011;16942;53.196;6.592;2022-09-17T04:18:31;10.93;;;1.67;;
30127;SDS011;16942;53.196;6.592;2022-09-17T04:20:57;14.20;;;2.20;;
30127;SDS011;16942;53.196;6.592;2022-09-17T04:23:23;13.70;;;1.80;;
30127;SDS011;16942;53.196;6.592;2022-09-17T04:25:49;8.50;;;1.40;;
30127;SDS011;16942;53.196;6.592;2022-09-17T04:28:15;6.10;;;1.43;;
30127;SDS011;16942;53.196;6.592;2022-09-17T04:30:41;11.73;;;1.93;;
30127;SDS011;16942;53.196;6.592;2022-09-17T04:33:07;9.50;;;1.77;;
30127;SDS011;16942;53.196;6.592;2022-09-17T04:35:34;21.23;;;1.93;;
30127;SDS011;16942;53.196;6.592;2022-09-17T04:38:00;15.20;;;1.93;;
30127;SDS011;16942;53.196;6.592;2022-09-17T04:40:26;5.37;;;1.23;;
30127;SDS011;16942;53.196;6.592;2022-09-17T04:42:53;10.13;;;2.37;;
30127;SDS011;16942;53.196;6.592;2022-09-17T04:45:19;10.73;;;1.60;;
30127;SDS011;16942;53.196;6.592;2022-09-17T04:47:45;6.40;;;1.13;;
30127;SDS011;16942;53.196;6.592;2022-09-17T04:50:11;12.00;;;2.23;;
30127;SDS011;16942;53.196;6.592;2022-09-17T04:52:41;9.83;;;1.77;;
30127;SDS011;16942;53.196;6.592;2022-09-17T04:55:07;15.40;;;2.40;;
30127;SDS011;16942;53.196;6.592;2022-09-17T04:57:33;13.10;;;2.33;;
30127;SDS011;16942;53.196;6.592;2022-09-17T04:59:59;12.93;;;2.07;;
30127;SDS011;16942;53.196;6.592;2022-09-17T05:02:25;9.60;;;1.97;;
30127;SDS011;16942;53.196;6.592;2022-09-17T05:04:51;6.93;;;2.13;;
30127;SDS011;16942;53.196;6.592;2022-09-17T05:07:17;9.00;;;1.43;;
30127;SDS011;16942;53.196;6.592;2022-09-17T05:09:44;7.03;;;1.23;;
30127;SDS011;16942;53.196;6.592;2022-09-17T05:12:10;7.93;;;1.60;;
30127;SDS011;16942;53.196;6.592;2022-09-17T05:14:36;9.40;;;1.30;;
30127;SDS011;16942;53.196;6.592;2022-09-17T05:17:02;16.90;;;3.00;;
30127;SDS011;16942;53.196;6.592;2022-09-17T05:19:28;19.03;;;5.63;;
30127;SDS011;16942;53.196;6.592;2022-09-17T05:21:54;19.03;;;5.00;;
30127;SDS011;16942;53.196;6.592;2022-09-17T05:24:20;18.50;;;4.87;;
30127;SDS011;16942;53.196;6.592;2022-09-17T05:26:46;12.17;;;3.60;;
30127;SDS011;16942;53.196;6.592;2022-09-17T05:29:12;15.13;;;3.23;;
30127;SDS011;16942;53.196;6.592;2022-09-17T05:31:38;23.10;;;2.10;;
30127;SDS011;16942;53.196;6.592;2022-09-17T05:34:05;12.87;;;2.33;;
30127;SDS011;16942;53.196;6.592;2022-09-17T05:36:31;14.10;;;1.90;;
30127;SDS011;16942;53.196;6.592;2022-09-17T05:38:57;16.23;;;1.87;;
30127;SDS011;16942;53.196;6.592;2022-09-17T05:41:23;18.07;;;2.40;;
30127;SDS011;16942;53.196;6.592;2022-09-17T05:43:49;12.57;;;1.80;;
30127;SDS011;16942;53.196;6.592;2022-09-17T05:46:15;11.80;;;1.57;;
30127;SDS011;16942;53.196;6.592;2022-09-17T05:48:41;17.87;;;3.00;;
30127;SDS011;16942;53.196;6.592;2022-09-17T05:51:07;16.00;;;1.93;;
30127;SDS011;16942;53.196;6.592;2022-09-17T05:53:33;13.63;;;1.80;;
30127;SDS011;16942;53.196;6.592;2022-09-17T05:55:59;15.87;;;1.70;;
30127;SDS011;16942;53.196;6.592;2022-09-17T05:58:26;14.73;;;1.60;;
30127;SDS011;16942;53.196;6.592;2022-09-17T06:00:52;24.17;;;2.73;;
30127;SDS011;16942;53.196;6.592;2022-09-17T06:03:19;15.77;;;2.10;;
30127;SDS011;16942;53.196;6.592;2022-09-17T06:05:53;17.53;;;2.43;;
30127;SDS011;16942;53.196;6.592;2022-09-17T06:08:19;15.70;;;1.90;;
30127;SDS011;16942;53.196;6.592;2022-09-17T06:10:46;12.33;;;1.77;;
30127;SDS011;16942;53.196;6.592;2022-09-17T06:13:12;8.70;;;1.67;;
30127;SDS011;16942;53.196;6.592;2022-09-17T06:15:38;12.40;;;1.40;;
30127;SDS011;16942;53.196;6.592;2022-09-17T06:18:04;7.10;;;1.13;;
30127;SDS011;16942;53.196;6.592;2022-09-17T06:20:30;7.87;;;1.40;;
30127;SDS011;16942;53.196;6.592;2022-09-17T06:22:56;7.70;;;1.37;;
30127;SDS011;16942;53.196;6.592;2022-09-17T06:25:22;7.37;;;1.70;;
30127;SDS011;16942;53.196;6.592;2022-09-17T06:27:48;10.63;;;1.77;;
30127;SDS011;16942;53.196;6.592;2022-09-17T06:30:14;14.40;;;1.23;;
30127;SDS011;16942;53.196;6.592;2022-09-17T06:32:40;11.87;;;1.57;;
30127;SDS011;16942;53.196;6.592;2022-09-17T06:35:07;14.27;;;1.80;;
30127;SDS011;16942;53.196;6.592;2022-09-17T06:37:33;9.37;;;1.47;;
30127;SDS011;16942;53.196;6.592;2022-09-17T06:40:00;15.07;;;1.90;;
30127;SDS011;16942;53.196;6.592;2022-09-17T06:42:28;9.20;;;2.07;;
30127;SDS011;16942;53.196;6.592;2022-09-17T06:44:54;15.53;;;2.00;;
30127;SDS011;16942;53.196;6.592;2022-09-17T06:47:22;11.27;;;1.30;;
30127;SDS011;16942;53.196;6.592;2022-09-17T06:49:49;12.97;;;1.40;;
30127;SDS011;16942;53.196;6.592;2022-09-17T06:52:15;6.27;;;1.13;;
30127;SDS011;16942;53.196;6.592;2022-09-17T06:54:41;8.00;;;1.60;;
30127;SDS011;16942;53.196;6.592;2022-09-17T06:57:07;9.47;;;1.63;;
30127;SDS011;16942;53.196;6.592;2022-09-17T06:59:33;5.60;;;1.33;;
30127;SDS011;16942;53.196;6.592;2022-09-17T07:02:00;7.37;;;1.30;;
30127;SDS011;16942;53.196;6.592;2022-09-17T07:04:26;6.10;;;1.37;;
30127;SDS011;16942;53.196;6.592;2022-09-17T07:06:52;9.93;;;1.37;;
30127;SDS011;16942;53.196;6.592;2022-09-17T07:09:18;8.90;;;1.47;;
30127;SDS011;16942;53.196;6.592;2022-09-17T07:11:44;9.50;;;2.00;;
30127;SDS011;16942;53.196;6.592;2022-09-17T07:14:10;10.50;;;2.57;;
30127;SDS011;16942;53.196;6.592;2022-09-17T07:16:36;12.63;;;2.07;;
30127;SDS011;16942;53.196;6.592;2022-09-17T07:19:02;6.63;;;1.27;;
30127;SDS011;16942;53.196;6.592;2022-09-17T07:21:28;11.93;;;1.77;;
30127;SDS011;16942;53.196;6.592;2022-09-17T07:23:54;14.10;;;2.00;;
30127;SDS011;16942;53.196;6.592;2022-09-17T07:26:20;10.00;;;1.50;;
30127;SDS011;16942;53.196;6.592;2022-09-17T07:28:46;11.60;;;1.80;;
30127;SDS011;16942;53.196;6.592;2022-09-17T07:31:13;9.27;;;1.50;;
30127;SDS011;16942;53.196;6.592;2022-09-17T07:33:39;8.93;;;1.53;;
30127;SDS011;16942;53.196;6.592;2022-09-17T07:36:06;12.67;;;1.40;;
30127;SDS011;16942;53.196;6.592;2022-09-17T07:38:33;14.13;;;1.83;;
30127;SDS011;16942;53.196;6.592;2022-09-17T07:41:03;12.80;;;1.50;;
30127;SDS011;16942;53.196;6.592;2022-09-17T07:43:31;8.30;;;1.27;;
30127;SDS011;16942;53.196;6.592;2022-09-17T07:45:58;13.50;;;3.23;;
30127;SDS011;16942;53.196;6.592;2022-09-17T07:48:24;8.07;;;1.20;;
30127;SDS011;16942;53.196;6.592;2022-09-17T07:50:50;8.90;;;1.10;;
30127;SDS011;16942;53.196;6.592;2022-09-17T07:53:17;9.00;;;1.23;;
30127;SDS011;16942;53.196;6.592;2022-09-17T07:55:50;10.93;;;1.30;;
30127;SDS011;16942;53.196;6.592;2022-09-17T07:58:16;5.87;;;1.17;;
30127;SDS011;16942;53.196;6.592;2022-09-17T08:00:42;9.13;;;1.40;;
30127;SDS011;16942;53.196;6.592;2022-09-17T08:03:08;14.70;;;1.20;;
30127;SDS011;16942;53.196;6.592;2022-09-17T08:05:34;6.63;;;1.37;;
30127;SDS011;16942;53.196;6.592;2022-09-17T08:08:00;8.87;;;1.50;;
30127;SDS011;16942;53.196;6.592;2022-09-17T08:10:27;6.63;;;1.07;;
30127;SDS011;16942;53.196;6.592;2022-09-17T08:12:54;7.60;;;0.80;;
30127;SDS011;16942;53.196;6.592;2022-09-17T08:15:21;11.97;;;1.30;;
30127;SDS011;16942;53.196;6.592;2022-09-17T08:17:47;8.23;;;1.20;;
30127;SDS011;16942;53.196;6.592;2022-09-17T08:20:13;4.23;;;0.93;;
30127;SDS011;16942;53.196;6.592;2022-09-17T08:22:40;10.73;;;1.83;;
30127;SDS011;16942;53.196;6.592;2022-09-17T08:25:06;9.27;;;1.10;;
30127;SDS011;16942;53.196;6.592;2022-09-17T08:27:33;9.30;;;1.37;;
30127;SDS011;16942;53.196;6.592;2022-09-17T08:29:59;7.47;;;1.57;;
30127;SDS011;16942;53.196;6.592;2022-09-17T08:32:25;7.70;;;1.37;;
30127;SDS011;16942;53.196;6.592;2022-09-17T08:34:51;15.73;;;1.90;;
30127;SDS011;16942;53.196;6.592;2022-09-17T08:37:18;8.63;;;1.27;;
30127;SDS011;16942;53.196;6.592;2022-09-17T08:39:44;11.53;;;1.40;;
30127;SDS011;16942;53.196;6.592;2022-09-17T08:42:22;13.43;;;1.70;;
30127;SDS011;16942;53.196;6.592;2022-09-17T08:44:49;14.17;;;2.27;;
30127;SDS011;16942;53.196;6.592;2022-09-17T08:49:50;4.77;;;1.17;;
30127;SDS011;16942;53.196;6.592;2022-09-17T08:52:25;4.17;;;1.43;;
30127;SDS011;16942;53.196;6.592;2022-09-17T08:55:12;9.00;;;1.10;;
30127;SDS011;16942;53.196;6.592;2022-09-17T09:00:10;6.07;;;0.90;;
30127;SDS011;16942;53.196;6.592;2022-09-17T09:05:44;6.90;;;0.80;;
30127;SDS011;16942;53.196;6.592;2022-09-17T09:08:27;8.63;;;1.60;;
30127;SDS011;16942;53.196;6.592;2022-09-17T09:10:55;3.90;;;0.80;;
30127;SDS011;16942;53.196;6.592;2022-09-17T09:13:24;7.97;;;0.77;;
30127;SDS011;16942;53.196;6.592;2022-09-17T09:16:02;2.93;;;0.80;;
30127;SDS011;16942;53.196;6.592;2022-09-17T09:18:30;4.93;;;1.50;;
30127;SDS011;16942;53.196;6.592;2022-09-17T09:26:16;13.37;;;1.73;;
30127;SDS011;16942;53.196;6.592;2022-09-17T09:33:59;11.77;;;1.60;;
30127;SDS011;16942;53.196;6.592;2022-09-17T09:36:27;5.67;;;1.17;;
30127;SDS011;16942;53.196;6.592;2022-09-17T09:38:56;5.57;;;0.97;;
30127;SDS011;16942;53.196;6.592;2022-09-17T09:57:02;7.10;;;1.60;;
30127;SDS011;16942;53.196;6.592;2022-09-17T09:59:31;9.03;;;1.40;;
30127;SDS011;16942;53.196;6.592;2022-09-17T10:01:58;12.40;;;1.37;;
30127;SDS011;16942;53.196;6.592;2022-09-17T10:04:25;5.07;;;1.17;;
30127;SDS011;16942;53.196;6.592;2022-09-17T10:06:52;8.27;;;1.20;;
30127;SDS011;16942;53.196;6.592;2022-09-17T10:09:19;8.20;;;1.63;;
30127;SDS011;16942;53.196;6.592;2022-09-17T10:11:58;8.03;;;1.40;;
30127;SDS011;16942;53.196;6.592;2022-09-17T10:14:25;4.80;;;1.20;;
30127;SDS011;16942;53.196;6.592;2022-09-17T10:19:36;14.37;;;2.13;;
30127;SDS011;16942;53.196;6.592;2022-09-17T10:22:17;7.50;;;1.53;;
30127;SDS011;16942;53.196;6.592;2022-09-17T10:24:44;9.90;;;1.43;;
30127;SDS011;16942;53.196;6.592;2022-09-17T10:27:14;8.17;;;1.27;;
30127;SDS011;16942;53.196;6.592;2022-09-17T10:29:42;7.37;;;1.50;;
30127;SDS011;16942;53.196;6.592;2022-09-17T10:32:19;12.13;;;1.90;;
30127;SDS011;16942;53.196;6.592;2022-09-17T10:35:03;9.97;;;1.30;;
30127;SDS011;16942;53.196;6.592;2022-09-17T10:37:31;7.70;;;1.30;;
30127;SDS011;16942;53.196;6.592;2022-09-17T10:39:57;16.07;;;1.97;;
30127;SDS011;16942;53.196;6.592;2022-09-17T10:42:24;4.13;;;1.37;;
30127;SDS011;16942;53.196;6.592;2022-09-17T10:44:54;12.43;;;1.60;;
30127;SDS011;16942;53.196;6.592;2022-09-17T10:49:57;9.77;;;1.93;;
30127;SDS011;16942;53.196;6.592;2022-09-17T10:52:31;10.20;;;1.30;;
30127;SDS011;16942;53.196;6.592;2022-09-17T11:00:09;13.40;;;2.10;;
30127;SDS011;16942;53.196;6.592;2022-09-17T11:02:46;12.80;;;2.60;;
30127;SDS011;16942;53.196;6.592;2022-09-17T11:05:29;9.33;;;1.50;;
30127;SDS011;16942;53.196;6.592;2022-09-17T11:08:20;12.90;;;1.50;;
30127;SDS011;16942;53.196;6.592;2022-09-17T11:10:47;17.13;;;3.00;;
30127;SDS011;16942;53.196;6.592;2022-09-17T11:13:36;8.03;;;1.60;;
30127;SDS011;16942;53.196;6.592;2022-09-17T11:19:12;9.37;;;1.40;;
30127;SDS011;16942;53.196;6.592;2022-09-17T11:27:00;17.80;;;1.37;;
30127;SDS011;16942;53.196;6.592;2022-09-17T11:29:44;6.30;;;1.50;;
30127;SDS011;16942;53.196;6.592;2022-09-17T11:32:20;6.30;;;1.10;;
30127;SDS011;16942;53.196;6.592;2022-09-17T11:34:58;8.00;;;1.40;;
30127;SDS011;16942;53.196;6.592;2022-09-17T11:37:32;8.47;;;1.23;;
30127;SDS011;16942;53.196;6.592;2022-09-17T11:43:01;6.53;;;1.77;;
30127;SDS011;16942;53.196;6.592;2022-09-17T11:45:28;7.93;;;1.33;;
30127;SDS011;16942;53.196;6.592;2022-09-17T11:50:36;11.33;;;2.00;;
30127;SDS011;16942;53.196;6.592;2022-09-17T11:53:10;11.60;;;1.77;;
30127;SDS011;16942;53.196;6.592;2022-09-17T11:58:21;16.67;;;1.80;;
30127;SDS011;16942;53.196;6.592;2022-09-17T12:00:52;7.77;;;1.50;;
30127;SDS011;16942;53.196;6.592;2022-09-17T12:03:24;15.13;;;1.60;;
30127;SDS011;16942;53.196;6.592;2022-09-17T12:05:53;12.87;;;1.87;;
30127;SDS011;16942;53.196;6.592;2022-09-17T12:13:41;9.17;;;1.43;;
30127;SDS011;16942;53.196;6.592;2022-09-17T12:16:14;7.20;;;1.50;;
30127;SDS011;16942;53.196;6.592;2022-09-17T12:18:45;10.73;;;1.87;;
30127;SDS011;16942;53.196;6.592;2022-09-17T12:21:12;9.27;;;1.97;;
30127;SDS011;16942;53.196;6.592;2022-09-17T12:23:41;8.13;;;1.77;;
30127;SDS011;16942;53.196;6.592;2022-09-17T12:28:40;7.20;;;1.40;;
30127;SDS011;16942;53.196;6.592;2022-09-17T12:31:31;6.90;;;1.17;;
30127;SDS011;16942;53.196;6.592;2022-09-17T12:34:11;7.10;;;1.37;;
30127;SDS011;16942;53.196;6.592;2022-09-17T12:36:41;5.40;;;1.17;;
30127;SDS011;16942;53.196;6.592;2022-09-17T12:51:50;8.02;;;1.25;;
30127;SDS011;16942;53.196;6.592;2022-09-17T12:59:19;8.82;;;1.52;;
30127;SDS011;16942;53.196;6.592;2022-09-17T13:12:16;8.02;;;1.63;;
30127;SDS011;16942;53.196;6.592;2022-09-17T13:17:32;7.65;;;1.63;;
30127;SDS011;16942;53.196;6.592;2022-09-17T13:22:47;14.00;;;2.35;;
30127;SDS011;16942;53.196;6.592;2022-09-17T13:25:14;9.75;;;1.73;;
30127;SDS011;16942;53.196;6.592;2022-09-17T13:27:41;9.32;;;1.42;;
30127;SDS011;16942;53.196;6.592;2022-09-17T13:30:11;7.15;;;1.70;;
30127;SDS011;16942;53.196;6.592;2022-09-17T13:37:31;10.77;;;1.77;;
30127;SDS011;16942;53.196;6.592;2022-09-17T13:39:58;13.38;;;1.50;;
30127;SDS011;16942;53.196;6.592;2022-09-17T13:42:26;15.23;;;2.00;;
30127;SDS011;16942;53.196;6.592;2022-09-17T13:45:13;6.60;;;1.60;;
30127;SDS011;16942;53.196;6.592;2022-09-17T13:47:59;10.65;;;2.28;;
30127;SDS011;16942;53.196;6.592;2022-09-17T13:50:31;10.38;;;2.25;;
30127;SDS011;16942;53.196;6.592;2022-09-17T13:52:59;16.90;;;2.20;;
30127;SDS011;16942;53.196;6.592;2022-09-17T13:55:37;13.93;;;2.00;;
30127;SDS011;16942;53.196;6.592;2022-09-17T13:58:49;11.35;;;1.73;;
30127;SDS011;16942;53.196;6.592;2022-09-17T14:08:28;4.72;;;1.15;;
30127;SDS011;16942;53.196;6.592;2022-09-17T14:10:56;6.55;;;1.63;;
30127;SDS011;16942;53.196;6.592;2022-09-17T14:16:00;9.85;;;1.90;;
30127;SDS011;16942;53.196;6.592;2022-09-17T14:23:40;6.57;;;1.92;;
30127;SDS011;16942;53.196;6.592;2022-09-17T14:26:08;9.18;;;1.45;;
30127;SDS011;16942;53.196;6.592;2022-09-17T14:28:48;7.75;;;1.38;;
30127;SDS011;16942;53.196;6.592;2022-09-17T14:31:21;5.85;;;1.02;;
30127;SDS011;16942;53.196;6.592;2022-09-17T14:33:50;4.38;;;1.00;;
30127;SDS011;16942;53.196;6.592;2022-09-17T14:36:20;9.13;;;1.13;;
30127;SDS011;16942;53.196;6.592;2022-09-17T14:38:47;10.30;;;1.02;;
30127;SDS011;16942;53.196;6.592;2022-09-17T14:41:34;5.65;;;1.13;;
30127;SDS011;16942;53.196;6.592;2022-09-17T14:44:05;5.63;;;1.20;;
30127;SDS011;16942;53.196;6.592;2022-09-17T14:46:34;8.27;;;1.45;;
30127;SDS011;16942;53.196;6.592;2022-09-17T14:49:14;4.57;;;1.43;;
30127;SDS011;16942;53.196;6.592;2022-09-17T14:51:41;7.90;;;1.53;;
30127;SDS011;16942;53.196;6.592;2022-09-17T14:54:17;8.73;;;1.48;;
30127;SDS011;16942;53.196;6.592;2022-09-17T14:56:48;7.63;;;1.30;;
30127;SDS011;16942;53.196;6.592;2022-09-17T14:59:20;7.05;;;1.35;;
30127;SDS011;16942;53.196;6.592;2022-09-17T15:01:47;6.15;;;1.35;;
30127;SDS011;16942;53.196;6.592;2022-09-17T15:06:40;5.38;;;1.23;;
30127;SDS011;16942;53.196;6.592;2022-09-17T15:09:16;6.68;;;1.25;;
30127;SDS011;16942;53.196;6.592;2022-09-17T15:11:43;6.78;;;1.98;;
30127;SDS011;16942;53.196;6.592;2022-09-17T15:14:14;9.57;;;1.83;;
30127;SDS011;16942;53.196;6.592;2022-09-17T15:16:48;6.75;;;1.42;;
30127;SDS011;16942;53.196;6.592;2022-09-17T15:19:34;11.82;;;1.75;;
30127;SDS011;16942;53.196;6.592;2022-09-17T15:22:24;5.65;;;1.58;;
30127;SDS011;16942;53.196;6.592;2022-09-17T15:27:28;9.90;;;1.63;;
30127;SDS011;16942;53.196;6.592;2022-09-17T15:30:04;6.37;;;1.97;;
30127;SDS011;16942;53.196;6.592;2022-09-17T15:32:31;8.33;;;1.30;;
30127;SDS011;16942;53.196;6.592;2022-09-17T15:37:49;9.60;;;1.73;;
30127;SDS011;16942;53.196;6.592;2022-09-17T15:40:29;6.60;;;1.47;;
30127;SDS011;16942;53.196;6.592;2022-09-17T15:43:00;3.80;;;0.83;;
30127;SDS011;16942;53.196;6.592;2022-09-17T15:45:31;9.10;;;1.30;;
30127;SDS011;16942;53.196;6.592;2022-09-17T15:48:01;5.60;;;1.03;;
30127;SDS011;16942;53.196;6.592;2022-09-17T15:50:28;7.00;;;1.30;;
30127;SDS011;16942;53.196;6.592;2022-09-17T15:53:09;10.00;;;1.70;;
30127;SDS011;16942;53.196;6.592;2022-09-17T15:55:40;6.50;;;1.00;;
30127;SDS011;16942;53.196;6.592;2022-09-17T15:58:28;4.37;;;1.40;;
30127;SDS011;16942;53.196;6.592;2022-09-17T16:11:32;6.10;;;1.50;;
30127;SDS011;16942;53.196;6.592;2022-09-17T16:13:58;7.37;;;1.33;;
30127;SDS011;16942;53.196;6.592;2022-09-17T16:18:57;9.33;;;1.43;;
30127;SDS011;16942;53.196;6.592;2022-09-17T16:21:23;6.27;;;1.37;;
30127;SDS011;16942;53.196;6.592;2022-09-17T16:23:49;8.00;;;1.50;;
30127;SDS011;16942;53.196;6.592;2022-09-17T16:26:18;6.93;;;1.13;;
30127;SDS011;16942;53.196;6.592;2022-09-17T16:28:45;8.93;;;1.20;;
30127;SDS011;16942;53.196;6.592;2022-09-17T16:31:12;10.17;;;1.43;;
30127;SDS011;16942;53.196;6.592;2022-09-17T16:33:39;7.17;;;1.20;;
30127;SDS011;16942;53.196;6.592;2022-09-17T16:36:05;10.27;;;1.83;;
30127;SDS011;16942;53.196;6.592;2022-09-17T16:38:31;5.67;;;1.30;;
30127;SDS011;16942;53.196;6.592;2022-09-17T16:40:57;7.53;;;1.30;;
30127;SDS011;16942;53.196;6.592;2022-09-17T16:43:23;12.80;;;2.00;;
30127;SDS011;16942;53.196;6.592;2022-09-17T16:46:03;8.87;;;1.60;;
30127;SDS011;16942;53.196;6.592;2022-09-17T16:48:30;4.67;;;1.00;;
30127;SDS011;16942;53.196;6.592;2022-09-17T16:50:56;6.90;;;1.27;;
30127;SDS011;16942;53.196;6.592;2022-09-17T16:53:22;5.47;;;1.30;;
30127;SDS011;16942;53.196;6.592;2022-09-17T16:55:48;10.40;;;1.43;;
30127;SDS011;16942;53.196;6.592;2022-09-17T16:58:14;7.40;;;1.63;;
30127;SDS011;16942;53.196;6.592;2022-09-17T17:00:43;10.43;;;2.13;;
30127;SDS011;16942;53.196;6.592;2022-09-17T17:03:13;7.03;;;1.40;;
30127;SDS011;16942;53.196;6.592;2022-09-17T17:05:39;7.47;;;1.27;;
30127;SDS011;16942;53.196;6.592;2022-09-17T17:08:06;8.37;;;1.90;;
30127;SDS011;16942;53.196;6.592;2022-09-17T17:10:33;12.00;;;1.80;;
30127;SDS011;16942;53.196;6.592;2022-09-17T17:12:59;9.13;;;1.80;;
30127;SDS011;16942;53.196;6.592;2022-09-17T17:15:25;8.10;;;1.87;;
30127;SDS011;16942;53.196;6.592;2022-09-17T17:17:51;8.83;;;1.43;;
30127;SDS011;16942;53.196;6.592;2022-09-17T17:20:17;9.00;;;2.13;;
30127;SDS011;16942;53.196;6.592;2022-09-17T17:22:44;8.53;;;1.57;;
30127;SDS011;16942;53.196;6.592;2022-09-17T17:25:11;9.90;;;1.53;;
30127;SDS011;16942;53.196;6.592;2022-09-17T17:27:38;5.63;;;1.37;;
30127;SDS011;16942;53.196;6.592;2022-09-17T17:30:05;5.50;;;1.33;;
30127;SDS011;16942;53.196;6.592;2022-09-17T17:32:32;7.47;;;1.97;;
30127;SDS011;16942;53.196;6.592;2022-09-17T17:34:59;7.10;;;1.13;;
30127;SDS011;16942;53.196;6.592;2022-09-17T17:37:25;7.57;;;1.47;;
30127;SDS011;16942;53.196;6.592;2022-09-17T17:39:51;11.00;;;1.77;;
30127;SDS011;16942;53.196;6.592;2022-09-17T17:42:18;12.40;;;1.30;;
30127;SDS011;16942;53.196;6.592;2022-09-17T17:44:44;5.03;;;1.33;;
30127;SDS011;16942;53.196;6.592;2022-09-17T17:47:11;4.40;;;0.93;;
30127;SDS011;16942;53.196;6.592;2022-09-17T17:49:39;6.80;;;1.23;;